Bei Facebook empfehlenBei Twitter postenGoogle plusPinterest

Das Wetter im Erzgebirge am 21.04.2015

Wetter und Klima am 21.04.2015 Holzhau im Erzgebirge (630m ü.NN)
Letzte gemessene Temperatur und Uhrzeit der Messung23:45:00 Uhr6.30 °C
Temperatur (Maximum / Höchstwert) und Uhrzeit der Messung16:15:00 Uhr17.60 °C
Temperatur (Minimum / Tiefstwert) und Uhrzeit der Messung06:45:00-2.10 °C
Errechneter Absolutwert der Temperaturschwankungen zwischen Tmin und Tmax des Tages19.70 K
Errechnete Tagesmitteltemperatur8.23229 °C
Gesamt - Niederschlag des Tages (in flüssiger Form)0.00 Liter / m²
Luftdruck (Maximum / Höchstwert) und Zeitpunkt der Messung10:45:00 Uhr1024.00 hPa
Luftdruck (Minimum / Tiefstwert) und Zeitpunkt der Messung19:00:00 Uhr1021.60 hPa
Errechneter Absolutwert der Luftdruckschwankungen des Tages2.40 hPa
Höchste gemessene Windgeschwindigkeit und Uhrzeit der Messung14:00:00 Uhr11.88 km/h
Errechnete Windhäufigkeit in Relation zu den Messwerten des Tages23.95833 %
Niedrigste Windkühle (Windchill) und Zeitpunkt der Messung06:45:00 Uhr-2.10 °C
Taupunkt (Maximum / Höchstwert) und Uhrzeit der Messung12:15:00 Uhr3.80 °C
Taupunkt (Minimum / Tiefstwert) und Uhrzeit der Messung04:30:00-4.00 °C
Anzahl der automatisch eingelesenen Messwerte 96

Detaillierte Wetter- und Klima- Messwerte für den 21.04.2015 in Holzhau im Erzgebirge (630m ü.NN)
ZeitTemperaturLuftdruckRel. LuftfeuchteWindWindrichtungWindchillTaupunktNiederschlag l/m²
23:45:006.30 °C1022.80 hPa67.00 %0.60 °C 
23:30:006.60 °C1022.80 hPa66.00 %0.70 °C 
23:15:007.10 °C1022.70 hPa64.00 %0.80 °C 
23:00:007.50 °C1022.70 hPa63.00 %0.90 °C 
22:45:007.80 °C1022.80 hPa62.00 %1.00 °C 
22:30:008.10 °C1022.80 hPa61.00 %1.00 °C 
22:15:008.30 °C1022.70 hPa59.00 %0.80 °C 
22:00:008.50 °C1022.70 hPa58.00 %0.70 °C 
21:45:008.80 °C1022.60 hPa56.00 %0.50 °C 
21:30:009.30 °C1022.60 hPa54.00 %0.50 °C 
21:15:009.90 °C1022.50 hPa52.00 %0.50 °C 
21:00:0010.40 °C1022.50 hPa51.00 %0.70 °C 
20:45:0010.90 °C1022.20 hPa49.00 %0.60 °C 
20:30:0011.60 °C1022.00 hPa47.00 %0.70 °C 
20:15:0012.20 °C1021.90 hPa46.00 %0.90 °C 
20:00:0012.90 °C1021.80 hPa44.00 %1.00 °C 
19:45:0013.50 °C1021.80 hPa42.00 %0.90 °C 
19:30:0014.10 °C1021.70 hPa41.00 %1.10 °C 
19:15:0014.60 °C1021.80 hPa40.00 %1.20 °C 
19:00:0015.10 °C1021.60 hPa38.00 %10.08 km/hW14.70 °C0.90 °C 
18:45:0015.40 °C1021.70 hPa37.00 %4.68 km/hWNW15.40 °C0.80 °C 
18:30:0015.80 °C1021.80 hPa36.00 %8.64 km/hNW15.70 °C0.80 °C 
18:15:0015.90 °C1022.00 hPa36.00 %0.90 °C 
18:00:0016.20 °C1022.10 hPa35.00 %9.72 km/hNW16.10 °C0.70 °C 
17:45:0016.50 °C1021.90 hPa34.00 %0.60 °C 
17:30:0016.80 °C1021.90 hPa34.00 %8.64 km/hWNW16.90 °C0.90 °C 
17:15:0017.00 °C1021.70 hPa33.00 %0.60 °C 
17:00:0017.10 °C1021.60 hPa33.00 %0.72 km/hWNW17.10 °C0.70 °C 
16:45:0017.30 °C1021.60 hPa31.00 %6.84 km/hWNW17.70 °C0.00 °C 
16:30:0017.50 °C1021.60 hPa31.00 %5.76 km/hNNW18.10 °C0.20 °C 
16:15:0017.60 °C1021.60 hPa32.00 %0.70 °C 
16:00:0017.60 °C1021.70 hPa33.00 %9.72 km/hW17.70 °C1.20 °C 
15:45:0017.60 °C1021.80 hPa32.00 %0.70 °C 
15:30:0017.60 °C1021.80 hPa34.00 %4.32 km/hWNW17.60 °C1.60 °C 
15:15:0017.30 °C1021.90 hPa36.00 %2.10 °C 
15:00:0017.40 °C1021.90 hPa37.00 %2.16 km/hNW17.40 °C2.60 °C 
14:45:0017.20 °C1022.10 hPa37.00 %2.40 °C 
14:30:0016.90 °C1022.30 hPa38.00 %10.44 km/hNW16.80 °C2.50 °C 
14:15:0017.00 °C1022.30 hPa37.00 %6.84 km/hWNW17.40 °C2.20 °C 
14:00:0016.90 °C1022.50 hPa38.00 %11.88 km/hWNW16.70 °C2.50 °C 
13:45:0016.20 °C1022.40 hPa39.00 %2.20 °C 
13:30:0016.10 °C1022.40 hPa41.00 %2.90 °C 
13:15:0015.30 °C1022.80 hPa43.00 %7.56 km/hWSW15.30 °C2.80 °C 
13:00:0015.00 °C1023.10 hPa46.00 %3.50 °C 
12:45:0014.60 °C1023.20 hPa46.00 %3.10 °C 
12:30:0014.20 °C1023.30 hPa46.00 %8.28 km/hNNW13.90 °C2.80 °C 
12:15:0014.10 °C1023.40 hPa50.00 %4.32 km/hWNW14.10 °C3.80 °C 
12:00:0013.60 °C1023.40 hPa51.00 %6.48 km/hWNW13.50 °C3.70 °C 
11:45:0012.80 °C1023.60 hPa54.00 %3.70 °C 
11:30:0012.40 °C1023.70 hPa54.00 %3.40 °C 
11:15:0011.80 °C1023.80 hPa57.00 %10.08 km/hWSW10.80 °C3.60 °C 
11:00:0011.30 °C1023.80 hPa57.00 %8.64 km/hWNW10.40 °C3.10 °C 
10:45:0011.00 °C1024.00 hPa59.00 %7.56 km/hNW10.30 °C3.30 °C 
10:30:0010.80 °C1023.80 hPa59.00 %9.72 km/hW9.60 °C3.10 °C 
10:15:0010.30 °C1023.90 hPa61.00 %3.10 °C 
10:00:009.80 °C1024.00 hPa61.00 %2.60 °C 
09:45:009.40 °C1023.80 hPa60.00 %2.00 °C 
09:30:009.30 °C1023.80 hPa60.00 %3.24 km/hWNW9.30 °C1.90 °C 
09:15:008.80 °C1023.90 hPa65.00 %2.60 °C 
09:00:008.10 °C1023.80 hPa70.00 %3.00 °C 
08:45:006.90 °C1023.80 hPa79.00 %3.50 °C 
08:30:005.30 °C1023.50 hPa84.00 %2.80 °C 
08:15:004.10 °C1023.60 hPa85.00 %1.80 °C 
08:00:003.30 °C1023.60 hPa86.00 %1.20 °C 
07:45:002.20 °C1023.60 hPa87.00 %0.30 °C 
07:30:000.90 °C1023.60 hPa89.00 %-0.70 °C 
07:15:00-0.90 °C1023.60 hPa90.00 %-2.50 °C 
07:00:00-1.90 °C1023.50 hPa89.00 %-3.70 °C 
06:45:00-2.10 °C1023.70 hPa89.00 %-3.90 °C 
06:30:00-2.10 °C1023.60 hPa89.00 %-3.90 °C 
06:15:00-2.10 °C1023.80 hPa89.00 %-3.90 °C 
06:00:00-2.10 °C1023.80 hPa89.00 %-3.90 °C 
05:45:00-1.80 °C1023.70 hPa89.00 %-3.60 °C 
05:30:00-1.80 °C1023.80 hPa89.00 %-3.60 °C 
05:15:00-1.80 °C1023.90 hPa88.00 %-3.70 °C 
05:00:00-1.90 °C1023.80 hPa88.00 %-3.80 °C 
04:45:00-1.90 °C1023.90 hPa88.00 %-3.80 °C 
04:30:00-1.90 °C1023.60 hPa87.00 %-4.00 °C 
04:15:00-1.60 °C1023.50 hPa87.00 %-3.70 °C 
04:00:00-1.40 °C1023.40 hPa87.00 %-3.50 °C 
03:45:00-1.30 °C1023.40 hPa86.00 %-3.60 °C 
03:30:00-1.20 °C1023.40 hPa86.00 %-3.50 °C 
03:15:00-0.60 °C1023.40 hPa86.00 %-2.90 °C 
03:00:00-0.20 °C1023.20 hPa86.00 %-2.50 °C 
02:45:00-0.10 °C1023.00 hPa86.00 %-2.40 °C 
02:30:00-0.10 °C1022.90 hPa86.00 %-2.40 °C 
02:15:000.20 °C1023.00 hPa85.00 %-2.00 °C 
02:00:000.40 °C1023.10 hPa85.00 %-1.80 °C 
01:45:000.40 °C1023.10 hPa85.00 %-1.80 °C 
01:30:000.40 °C1023.00 hPa84.00 %-2.00 °C 
01:15:000.70 °C1023.00 hPa84.00 %-1.70 °C 
01:00:000.80 °C1023.00 hPa83.00 %-1.80 °C 
00:45:001.10 °C1023.00 hPa82.00 %-1.60 °C 
00:30:001.50 °C1023.20 hPa83.00 %-1.10 °C 
00:15:001.80 °C1023.10 hPa82.00 %-0.90 °C 
00:00:002.10 °C1022.90 hPa82.00 %-0.60 °C 

Permanenter Link zu dieser Seite: Wetter im Erzgebirge am 21.04.2015
Performance-Info: Die Erstellung der Seite / Statistik(en) / Tabelle(n) erforderte 5 Datenbankserver-Abfrage(n) und dauerte 81 Millisekunden. (Dieser Messwert ist von der Gesamt-Auslastung des Servers abhängig.)
Erzgebirge - Wetter | Erzgebirge - Wetter (Mobilgeräte) | Komplette Klimadatenbank